Airfield :
LOGIN :

Register | Disclaimer

   EN    FR    IT 

 










Legend :    VFR   Marginal VFR   IFR   Intensive IFR   Very Intensive IFR
Visi :
Ceiling :
>= 8 km
>= 3000ft
5 to 8 km
1000 to 3000 ft
1500m to 5 km
500 to 1000 ft
800 to 1500m
200 to 500 ft
< 800m
< 200 ft
Symbols :   Thunderstorms  Fog  Heavy snow  Heavy precipitations  Wind > 20 kt
SIGMETs :     Misc.  Thunderstorms  Icing  Turbulence  Mountain Waves  Volcanic Ashes







- Airport Elevation : 55 ft
- IATA code : DSA
- Download approach charts


EGCN - Robin Hood Doncaster Sheffield

CURRENT METAR :
  • 191750Z 15010KT 3000 R20/0650 -RADZ SCT009 BKN014 BKN020 16/16 Q0998

EXPIRED METARs :
  • 191720Z 15010KT 4000 R20/1300 BR FEW007 BKN024 OVC029 16/16 Q0998 RERA
  • 191650Z 13007KT 3400 R20/1100 BR BKN008 17/16 Q0999 RERA
  • 191620Z 13006KT 3100 R20/1100 BR BKN009 16/15 Q0999
  • 191550Z 11005KT 4400 R20/1000 BR SCT007 BKN011 16/15 Q0999
  • 191520Z 13005KT 090V160 2700 R20/1000 BR BKN004 16/16 Q1000

TAF TAF EGCN
Valid from the 19 at 18:00 until the 20 at 18:00 UTC


191657Z 1918/2018 15008KT 6000 SCT008 BKN015
TEMPO 1918/1923 3000 RA BR BKN006
TEMPO 1923/2009 RA BKN012
BECMG 2009/2012 28010KT 9999
BECMG 2015/2018 22011KT
PROB30
TEMPO 2015/2018 BKN014
No reported NOTAMs for that airfield.
1 SIGMET reported for the London FIR (EGTT) :
 
Severe turbulence
EGTT SIGMET 02 VALID 191720/192020 EGRR
EGTT LONDON FIR SEV TURB FCST WI N5210 W00549 - N4946 W00315 - N4909 W00623 - N5100 W00800 - N5210 W00549 SFC/FL060 MOV E 20KT WKN=



MET'MAP, your aeronautical weather chart ! - Copyright ORBIFLY December 2007 - Disclaimer

ORBIFLY MET'MAP TEAM :

Programming & Development : Alexandra Zaïnal
Concept & Development : Baudouin d'Aumeries
Co-Development & Prog : Marc-Olivier Méhu
Technical & hardware support : Manuel Goepfert

Contact : metmap@orbifly.com




SOURCES & CREDITS :

   NOAA